Time;durP1;ratioP1;P1;durP2;ratioP2;P2;SDS_P1;SDS_P2;PMS_P1;PMS_P2;Temp;Humidity;BMP_temperature;BMP_pressure;BME280_temperature;BME280_humidity;BME280_pressure;Samples;Min_cycle;Max_cycle;Signal;HPM_P1;HPM_P2
2022/10/24 00:01:11;;;;;;;4.45;2.03;;;15.40;99.90;;;;;;5072144;28;20045;-69
2022/10/24 00:03:37;;;;;;;3.90;1.55;;;15.40;99.90;;;;;;5072075;28;20036;-69
2022/10/24 00:06:05;;;;;;;5.07;1.90;;;15.40;99.90;;;;;;5071817;28;20165;-69
2022/10/24 00:08:31;;;;;;;3.10;1.65;;;15.30;99.90;;;;;;5070704;28;20094;-69
2022/10/24 00:10:57;;;;;;;3.15;1.67;;;15.30;99.90;;;;;;5087396;28;20193;-69
2022/10/24 00:13:22;;;;;;;4.20;1.98;;;15.30;99.90;;;;;;5070597;28;20556;-69
2022/10/24 00:15:49;;;;;;;3.67;1.58;;;15.20;99.90;;;;;;5070446;28;20137;-69
2022/10/24 00:18:15;;;;;;;2.63;1.50;;;15.20;99.90;;;;;;5071795;28;20059;-69
2022/10/24 00:20:41;;;;;;;3.15;1.30;;;15.30;99.90;;;;;;5070500;28;20098;-69
2022/10/24 00:23:08;;;;;;;2.35;1.40;;;15.30;99.90;;;;;;5071480;28;20051;-69
2022/10/24 00:25:34;;;;;;;5.32;1.70;;;15.20;99.90;;;;;;5069665;28;20097;-68
2022/10/24 00:28:00;;;;;;;3.45;1.30;;;15.30;99.90;;;;;;5071571;28;20076;-69
2022/10/24 00:30:26;;;;;;;3.17;1.33;;;15.20;99.90;;;;;;5071725;28;20129;-69
2022/10/24 00:32:52;;;;;;;4.57;1.50;;;15.20;99.90;;;;;;5071864;28;20479;-69
2022/10/24 00:35:18;;;;;;;3.90;1.30;;;15.20;99.90;;;;;;5071097;28;20036;-69
2022/10/24 00:37:43;;;;;;;5.97;1.50;;;15.20;99.90;;;;;;5070982;28;20123;-69
2022/10/24 00:40:13;;;;;;;3.92;1.67;;;15.20;99.90;;;;;;5071259;28;20119;-69
2022/10/24 00:42:39;;;;;;;3.92;1.20;;;15.20;99.90;;;;;;5071699;28;20043;-68
2022/10/24 00:45:35;;;;;;;3.63;1.30;;;15.20;99.90;;;;;;5071220;28;20408;-69
2022/10/24 00:48:01;;;;;;;2.75;1.20;;;15.10;99.90;;;;;;5070146;28;20044;-69
2022/10/24 00:50:27;;;;;;;5.68;2.53;;;15.10;99.90;;;;;;5053348;28;20047;-69
2022/10/24 00:52:53;;;;;;;5.60;1.60;;;15.10;99.90;;;;;;5070073;28;20036;-69
2022/10/24 00:55:20;;;;;;;6.45;1.40;;;15.10;99.90;;;;;;5071281;28;20040;-69
2022/10/24 00:57:52;;;;;;;4.50;1.85;;;15.10;99.90;;;;;;5071572;28;20102;-69
2022/10/24 01:00:25;;;;;;;3.92;1.52;;;15.20;99.90;;;;;;5069933;28;20044;-69
2022/10/24 01:02:51;;;;;;;5.85;1.67;;;15.20;99.90;;;;;;5071372;28;20095;-69
2022/10/24 01:05:19;;;;;;;5.32;1.73;;;15.20;99.90;;;;;;5071166;28;20036;-69
2022/10/24 01:08:21;;;;;;;3.25;1.60;;;15.10;99.90;;;;;;5071112;28;20680;-69
2022/10/24 01:10:59;;;;;;;5.13;1.42;;;15.20;99.90;;;;;;5070036;28;20404;-69
2022/10/24 01:13:34;;;;;;;9.70;1.90;;;15.20;99.90;;;;;;5071107;28;20048;-69
2022/10/24 01:16:15;;;;;;;4.57;1.77;;;15.30;99.90;;;;;;5071130;28;20036;-69
2022/10/24 01:18:51;;;;;;;6.18;1.75;;;15.20;99.90;;;;;;5071412;28;20068;-69
2022/10/24 01:21:23;;;;;;;6.57;1.52;;;15.30;99.90;;;;;;5071361;28;20397;-69
2022/10/24 01:24:21;;;;;;;4.65;1.50;;;15.30;99.90;;;;;;5069791;28;20498;-69
2022/10/24 01:26:56;;;;;;;5.32;1.65;;;15.30;99.90;;;;;;5071048;28;20516;-69
2022/10/24 01:29:45;;;;;;;3.70;1.60;;;15.30;99.90;;;;;;5071003;28;20071;-69
2022/10/24 01:32:18;;;;;;;6.28;1.80;;;15.30;99.90;;;;;;5086882;28;20397;-68
2022/10/24 01:35:00;;;;;;;4.07;1.90;;;15.30;99.90;;;;;;5070937;28;20116;-68
2022/10/24 01:37:33;;;;;;;3.63;1.85;;;15.30;99.90;;;;;;5073209;28;20040;-69
2022/10/24 01:40:07;;;;;;;5.50;1.60;;;15.30;99.90;;;;;;5074718;28;20137;-69
2022/10/24 01:42:35;;;;;;;4.05;1.77;;;15.30;99.90;;;;;;5074615;28;20397;-69
2022/10/24 01:45:02;;;;;;;3.92;1.63;;;15.30;99.90;;;;;;5074292;28;20048;-69
2022/10/24 01:47:42;;;;;;;6.22;2.25;;;15.20;99.90;;;;;;5074519;28;20033;-69
2022/10/24 01:50:12;;;;;;;3.55;1.60;;;15.20;99.90;;;;;;5074170;28;20028;-69
2022/10/24 01:52:40;;;;;;;5.82;1.60;;;15.20;99.90;;;;;;5074254;28;20033;-69
2022/10/24 01:55:07;;;;;;;5.65;1.83;;;15.20;99.90;;;;;;5073807;28;20488;-69
2022/10/24 01:57:33;;;;;;;3.63;1.80;;;15.20;99.90;;;;;;5074111;28;20036;-68
2022/10/24 01:59:59;;;;;;;8.40;1.88;;;15.20;99.90;;;;;;5072817;28;20035;-69
2022/10/24 02:02:40;;;;;;;6.18;2.08;;;15.10;99.90;;;;;;5074147;28;20040;-69
2022/10/24 02:05:12;;;;;;;3.55;1.73;;;15.10;99.90;;;;;;5073635;28;20045;-69
2022/10/24 02:07:41;;;;;;;6.47;1.90;;;15.10;99.90;;;;;;5072777;28;20079;-69
2022/10/24 02:10:10;;;;;;;4.68;1.50;;;15.10;99.90;;;;;;5073956;28;20496;-69
2022/10/24 02:12:43;;;;;;;3.42;1.98;;;15.10;99.90;;;;;;5073736;28;20055;-69
2022/10/24 02:15:23;;;;;;;8.00;2.10;;;15.10;99.90;;;;;;5072416;28;20076;-69
2022/10/24 02:17:49;;;;;;;4.25;1.90;;;15.10;99.90;;;;;;5073687;28;20504;-69
2022/10/24 02:20:15;;;;;;;5.40;1.50;;;15.10;99.90;;;;;;5055668;28;20117;-70
2022/10/24 02:22:55;;;;;;;7.82;1.88;;;15.10;99.90;;;;;;5073763;28;20037;-69
2022/10/24 02:25:25;;;;;;;5.40;1.77;;;15.00;99.90;;;;;;5073520;28;20610;-69
2022/10/24 02:27:59;;;;;;;7.22;2.03;;;15.00;99.90;;;;;;5073518;28;20133;-69
2022/10/24 02:30:27;;;;;;;5.95;1.80;;;15.00;99.90;;;;;;5072456;28;20036;-69
2022/10/24 02:32:56;;;;;;;4.97;2.03;;;15.10;99.90;;;;;;5073702;28;20040;-69
2022/10/24 02:35:25;;;;;;;9.50;1.73;;;15.10;99.90;;;;;;5073289;28;20128;-69
2022/10/24 02:37:57;;;;;;;5.20;2.25;;;15.10;99.90;;;;;;5073250;28;20043;-69
2022/10/24 02:40:23;;;;;;;3.83;1.65;;;15.10;99.90;;;;;;5073417;28;20050;-69
2022/10/24 02:42:52;;;;;;;5.03;1.92;;;15.10;99.90;;;;;;5073326;28;20037;-69
2022/10/24 02:45:19;;;;;;;5.60;1.90;;;15.20;99.90;;;;;;5073323;28;20432;-69
2022/10/24 02:47:47;;;;;;;5.05;2.58;;;15.10;99.90;;;;;;5071647;28;20098;-69
2022/10/24 02:50:13;;;;;;;5.10;1.63;;;15.10;99.90;;;;;;5073058;28;20504;-69
2022/10/24 02:52:40;;;;;;;5.65;1.80;;;15.10;99.90;;;;;;5073445;28;20128;-69
2022/10/24 02:55:06;;;;;;;9.70;2.00;;;15.10;99.90;;;;;;5073029;28;20442;-69
2022/10/24 02:57:32;;;;;;;3.95;1.77;;;15.10;99.90;;;;;;5072935;28;20044;-69
2022/10/24 02:59:57;;;;;;;2.72;1.70;;;15.10;99.90;;;;;;5071482;28;20044;-69
2022/10/24 03:02:23;;;;;;;9.90;2.45;;;15.10;99.90;;;;;;5073024;28;20047;-69
2022/10/24 03:04:49;;;;;;;7.72;1.75;;;15.10;99.90;;;;;;5072470;28;20048;-69
2022/10/24 03:07:14;;;;;;;6.10;1.73;;;15.10;99.90;;;;;;5071765;28;20036;-69
2022/10/24 03:09:40;;;;;;;3.30;1.63;;;15.10;99.90;;;;;;5071507;28;20040;-69
2022/10/24 03:12:05;;;;;;;5.30;1.98;;;15.00;99.90;;;;;;5072515;28;20047;-69
2022/10/24 03:14:31;;;;;;;6.90;2.45;;;15.00;99.90;;;;;;5072745;28;20089;-69
2022/10/24 03:16:57;;;;;;;9.15;2.00;;;15.00;99.90;;;;;;5072757;28;20044;-69
2022/10/24 03:19:22;;;;;;;4.05;1.80;;;15.10;99.90;;;;;;5072820;28;20252;-69
2022/10/24 03:21:48;;;;;;;7.10;2.40;;;15.00;99.90;;;;;;5072337;28;20101;-70
2022/10/24 03:24:14;;;;;;;3.55;1.98;;;15.10;99.90;;;;;;5072413;28;20370;-69
2022/10/24 03:26:39;;;;;;;5.28;2.00;;;15.00;99.90;;;;;;5072350;28;20135;-69
2022/10/24 03:29:05;;;;;;;3.50;1.95;;;15.10;99.90;;;;;;5072661;28;20109;-69
2022/10/24 03:31:30;;;;;;;12.27;2.05;;;15.10;99.90;;;;;;5072284;28;20044;-69
2022/10/24 03:33:59;;;;;;;10.63;2.25;;;15.20;99.90;;;;;;5072015;28;20041;-69
2022/10/24 03:36:24;;;;;;;8.75;2.00;;;15.20;99.90;;;;;;5071724;28;20120;-69
2022/10/24 03:38:50;;;;;;;8.68;2.08;;;15.20;99.90;;;;;;5072384;28;20036;-69
2022/10/24 03:41:15;;;;;;;4.68;1.98;;;15.20;99.90;;;;;;5072124;28;20052;-70
2022/10/24 03:43:41;;;;;;;6.63;2.15;;;15.20;99.90;;;;;;5072186;28;20036;-70
2022/10/24 03:46:07;;;;;;;4.35;1.95;;;15.20;99.90;;;;;;5072246;28;20120;-69
2022/10/24 03:48:32;;;;;;;6.07;2.15;;;15.30;99.90;;;;;;5071871;28;20029;-69
2022/10/24 03:50:58;;;;;;;5.55;2.40;;;15.30;99.90;;;;;;5070844;28;20436;-69
2022/10/24 03:53:24;;;;;;;7.32;2.50;;;15.30;99.90;;;;;;5072003;28;20489;-70
2022/10/24 03:55:49;;;;;;;5.57;2.03;;;15.30;99.90;;;;;;5071889;28;20493;-69
2022/10/24 03:58:15;;;;;;;6.38;1.95;;;15.30;99.90;;;;;;5071414;28;20029;-69
2022/10/24 04:00:41;;;;;;;5.95;1.63;;;15.30;99.90;;;;;;5071831;28;20127;-69
2022/10/24 04:03:08;;;;;;;4.30;1.80;;;15.40;99.90;;;;;;5072115;28;20036;-69
2022/10/24 04:05:35;;;;;;;6.50;1.38;;;15.40;99.90;;;;;;5071491;28;20040;-69
2022/10/24 04:08:04;;;;;;;4.78;1.45;;;15.30;99.90;;;;;;5070549;28;20068;-68
2022/10/24 04:10:29;;;;;;;2.60;1.42;;;15.30;99.90;;;;;;5071979;28;20036;-69
2022/10/24 04:12:55;;;;;;;6.32;1.83;;;15.30;99.90;;;;;;5071908;28;20087;-69
2022/10/24 04:15:20;;;;;;;6.93;1.50;;;15.30;99.90;;;;;;5071387;28;20043;-69
2022/10/24 04:17:46;;;;;;;5.45;1.83;;;15.30;99.90;;;;;;5070251;28;20036;-69
2022/10/24 04:20:12;;;;;;;4.03;1.70;;;15.20;99.90;;;;;;5071824;28;20036;-69
2022/10/24 04:22:37;;;;;;;6.07;1.90;;;15.20;99.90;;;;;;5071862;28;20095;-69
2022/10/24 04:25:04;;;;;;;5.65;1.80;;;15.20;99.90;;;;;;5071459;28;20393;-69
2022/10/24 04:27:29;;;;;;;4.10;1.80;;;15.20;99.90;;;;;;5070670;28;20029;-70
2022/10/24 04:29:55;;;;;;;3.63;1.60;;;15.20;99.90;;;;;;5071863;28;20033;-69
2022/10/24 04:32:21;;;;;;;4.40;1.80;;;15.20;99.90;;;;;;5071458;28;20045;-69
2022/10/24 04:34:46;;;;;;;5.55;1.55;;;15.10;99.90;;;;;;5071570;28;20408;-69
2022/10/24 04:37:12;;;;;;;3.63;1.58;;;15.10;99.90;;;;;;5071157;28;20497;-70
2022/10/24 04:39:37;;;;;;;8.73;1.60;;;15.10;99.90;;;;;;5071552;28;20076;-69
2022/10/24 04:42:03;;;;;;;1.33;0.98;;;15.20;99.90;;;;;;5071283;28;20053;-69
2022/10/24 04:44:28;;;;;;;5.53;1.58;;;15.20;99.90;;;;;;5071197;28;20036;-69
2022/10/24 04:46:54;;;;;;;4.40;1.33;;;15.20;99.90;;;;;;5071509;28;20068;-69
2022/10/24 04:49:20;;;;;;;4.38;1.58;;;15.20;99.90;;;;;;5070204;28;20032;-69
2022/10/24 04:51:45;;;;;;;3.05;1.70;;;15.20;99.90;;;;;;5071354;28;20044;-69
2022/10/24 04:54:11;;;;;;;3.92;1.50;;;15.10;99.90;;;;;;5071058;28;20666;-69
2022/10/24 04:56:37;;;;;;;6.43;1.70;;;15.10;99.90;;;;;;5071371;28;20024;-69
2022/10/24 04:59:02;;;;;;;7.13;2.22;;;15.00;99.90;;;;;;5071029;28;20095;-69
2022/10/24 05:01:28;;;;;;;3.90;1.42;;;15.00;99.90;;;;;;5071447;28;20076;-69
2022/10/24 05:03:53;;;;;;;6.93;1.40;;;15.00;99.90;;;;;;5071106;28;20163;-69
2022/10/24 05:06:19;;;;;;;3.33;1.60;;;15.00;99.90;;;;;;5071519;28;20033;-69
2022/10/24 05:08:45;;;;;;;6.95;1.60;;;15.00;99.90;;;;;;5071194;28;20055;-69
2022/10/24 05:11:10;;;;;;;5.10;1.38;;;15.00;99.90;;;;;;5055719;28;20075;-69
2022/10/24 05:13:37;;;;;;;4.18;1.70;;;15.00;99.90;;;;;;5074777;28;20036;-69
2022/10/24 05:16:03;;;;;;;4.15;1.20;;;15.00;99.90;;;;;;5074826;28;20040;-69
2022/10/24 05:18:29;;;;;;;6.70;1.52;;;15.00;99.90;;;;;;5075152;28;20459;-69
2022/10/24 05:20:56;;;;;;;7.00;2.45;;;15.00;99.90;;;;;;5074852;28;20097;-69
2022/10/24 05:23:22;;;;;;;4.07;1.80;;;15.10;99.90;;;;;;5073600;28;20116;-69
2022/10/24 05:25:48;;;;;;;5.25;1.55;;;15.00;99.90;;;;;;5074789;28;20068;-69
2022/10/24 05:28:13;;;;;;;5.40;1.52;;;15.00;99.90;;;;;;5073693;28;20611;-69
2022/10/24 05:30:41;;;;;;;4.57;1.48;;;14.90;99.90;;;;;;5074771;28;20033;-69
2022/10/24 05:33:06;;;;;;;5.55;1.50;;;14.90;99.90;;;;;;5074997;28;20040;-70
2022/10/24 05:35:32;;;;;;;2.38;1.20;;;14.90;99.90;;;;;;5074569;28;20048;-69
2022/10/24 05:37:57;;;;;;;8.32;1.50;;;14.80;99.90;;;;;;5074599;28;20040;-69
2022/10/24 05:40:23;;;;;;;4.30;1.33;;;14.80;99.90;;;;;;5074681;28;20123;-69
2022/10/24 05:42:51;;;;;;;8.18;1.50;;;14.80;99.90;;;;;;5073212;28;20407;-69
2022/10/24 05:45:16;;;;;;;2.45;1.20;;;14.80;99.90;;;;;;5072904;28;20116;-69
2022/10/24 05:47:42;;;;;;;2.92;1.20;;;14.80;99.90;;;;;;5074597;28;20068;-69
2022/10/24 05:50:08;;;;;;;4.50;1.30;;;14.80;99.90;;;;;;5073159;28;20037;-69
2022/10/24 05:52:35;;;;;;;5.40;1.30;;;14.80;99.90;;;;;;5074538;28;20123;-69
2022/10/24 05:55:03;;;;;;;2.85;1.20;;;14.70;99.90;;;;;;5072865;28;20078;-68
2022/10/24 05:57:28;;;;;;;4.30;1.40;;;14.80;99.90;;;;;;5073814;28;20447;-69
2022/10/24 05:59:54;;;;;;;2.38;1.27;;;14.80;99.90;;;;;;5074156;28;20044;-68
2022/10/24 06:02:22;;;;;;;6.40;1.67;;;14.80;99.90;;;;;;5073139;28;20397;-69
2022/10/24 06:04:49;;;;;;;8.20;1.45;;;14.70;99.90;;;;;;5074000;28;20032;-69
2022/10/24 06:07:15;;;;;;;8.73;1.75;;;14.80;99.90;;;;;;5073993;28;20047;-69
2022/10/24 06:09:41;;;;;;;8.82;2.05;;;14.70;99.90;;;;;;5074039;28;20040;-69
2022/10/24 06:12:08;;;;;;;2.40;1.40;;;14.70;99.90;;;;;;5073923;28;20040;-69
2022/10/24 06:14:34;;;;;;;3.40;1.42;;;14.70;99.90;;;;;;5073536;28;20050;-69
2022/10/24 06:17:00;;;;;;;5.68;1.45;;;14.70;99.90;;;;;;5070968;28;20040;-69
2022/10/24 06:19:26;;;;;;;7.97;2.00;;;14.70;99.90;;;;;;5070663;28;20097;-69
2022/10/24 06:21:51;;;;;;;4.65;1.92;;;14.70;99.90;;;;;;5071838;28;20515;-68
2022/10/24 06:24:17;;;;;;;7.40;1.45;;;14.70;99.90;;;;;;5073694;28;20503;-69
2022/10/24 06:26:42;;;;;;;3.40;1.45;;;14.70;99.90;;;;;;5072517;28;20036;-69
2022/10/24 06:29:08;;;;;;;4.90;1.52;;;14.70;99.90;;;;;;5070309;28;20127;-69
2022/10/24 06:31:34;;;;;;;4.45;1.33;;;14.80;99.90;;;;;;5071796;28;20040;-68
2022/10/24 06:34:00;;;;;;;2.92;1.70;;;14.80;99.90;;;;;;5072710;28;20392;-69
2022/10/24 06:36:26;;;;;;;2.92;1.50;;;14.80;99.90;;;;;;5071973;28;20123;-69
2022/10/24 06:38:53;;;;;;;3.83;1.52;;;14.80;99.90;;;;;;5073508;28;20028;-69
2022/10/24 06:41:19;;;;;;;6.07;1.42;;;14.70;99.90;;;;;;5073269;28;20564;-69
2022/10/24 06:43:44;;;;;;;6.47;1.63;;;14.70;99.90;;;;;;5073136;28;20076;-69
2022/10/24 06:46:13;;;;;;;8.27;2.20;;;14.80;99.90;;;;;;5073146;28;20047;-69
2022/10/24 06:48:38;;;;;;;4.00;1.42;;;14.70;99.90;;;;;;5073196;28;20063;-68
2022/10/24 06:51:05;;;;;;;5.75;1.52;;;14.70;99.90;;;;;;5073305;28;20044;-68
2022/10/24 06:53:31;;;;;;;5.20;1.55;;;14.80;99.90;;;;;;5073254;28;20047;-68
2022/10/24 06:56:02;;;;;;;2.08;1.45;;;14.70;99.90;;;;;;5072753;28;20547;-69
2022/10/24 06:58:32;;;;;;;3.67;1.50;;;14.80;99.90;;;;;;5073159;28;20039;-68
2022/10/24 07:00:58;;;;;;;3.58;1.90;;;14.80;99.90;;;;;;5071912;28;20123;-67
2022/10/24 07:03:23;;;;;;;1.90;1.10;;;14.80;99.90;;;;;;5073214;28;20082;-68
2022/10/24 07:05:49;;;;;;;2.50;1.17;;;14.80;99.90;;;;;;5072933;28;20032;-68
2022/10/24 07:08:14;;;;;;;2.75;1.13;;;14.90;99.90;;;;;;5072819;28;20559;-68
2022/10/24 07:10:40;;;;;;;9.20;1.70;;;14.80;99.90;;;;;;5072982;28;20404;-68
2022/10/24 07:13:05;;;;;;;3.45;1.80;;;14.90;99.90;;;;;;5072834;28;20505;-68
2022/10/24 07:15:31;;;;;;;4.72;2.15;;;14.80;99.90;;;;;;5072638;28;20044;-68
2022/10/24 07:17:56;;;;;;;2.33;1.25;;;14.90;99.90;;;;;;5072718;28;20036;-68
2022/10/24 07:20:22;;;;;;;4.35;1.30;;;14.80;99.90;;;;;;5072939;28;20052;-68
2022/10/24 07:22:47;;;;;;;4.97;1.90;;;14.80;99.90;;;;;;5072219;28;20040;-69
2022/10/24 07:25:13;;;;;;;3.80;1.40;;;14.90;99.90;;;;;;5071857;28;20119;-69
2022/10/24 07:27:39;;;;;;;5.20;1.52;;;14.80;99.90;;;;;;5070129;28;20032;-68
2022/10/24 07:30:06;;;;;;;8.50;2.42;;;14.90;99.90;;;;;;5072260;28;20456;-68
2022/10/24 07:32:31;;;;;;;5.45;1.40;;;14.90;99.90;;;;;;5072128;28;20078;-69
2022/10/24 07:34:57;;;;;;;6.10;1.50;;;14.90;99.90;;;;;;5071692;28;20072;-69
2022/10/24 07:37:22;;;;;;;6.38;1.63;;;15.00;99.90;;;;;;5072436;28;20053;-69
2022/10/24 07:39:48;;;;;;;2.03;1.08;;;15.00;99.90;;;;;;5070360;28;20051;-68
2022/10/24 07:42:15;;;;;;;3.22;1.60;;;15.00;99.90;;;;;;5072240;28;20036;-68
2022/10/24 07:44:41;;;;;;;8.77;1.60;;;15.00;99.90;;;;;;5070765;28;20028;-70
2022/10/24 07:47:08;;;;;;;10.68;2.25;;;15.10;99.90;;;;;;5072128;28;20091;-68
2022/10/24 07:49:34;;;;;;;8.15;1.63;;;15.20;99.90;;;;;;5071968;28;20052;-68
2022/10/24 07:52:00;;;;;;;5.57;1.30;;;15.20;99.90;;;;;;5070894;28;20057;-68
2022/10/24 07:54:27;;;;;;;3.78;1.35;;;15.20;99.90;;;;;;5071489;28;20489;-68
2022/10/24 07:56:53;;;;;;;5.65;1.10;;;15.20;99.90;;;;;;5071955;28;20571;-68
2022/10/24 07:59:19;;;;;;;5.28;1.20;;;15.20;99.90;;;;;;5071906;28;20036;-68
2022/10/24 08:01:44;;;;;;;2.22;1.20;;;15.30;99.90;;;;;;5070814;28;20170;-68
2022/10/24 08:04:12;;;;;;;4.60;1.20;;;15.30;99.90;;;;;;5051826;28;20052;-68
2022/10/24 08:06:41;;;;;;;3.78;1.00;;;15.30;99.90;;;;;;5050441;28;20044;-68
2022/10/24 08:09:07;;;;;;;2.20;1.20;;;15.40;99.90;;;;;;5051969;28;20563;-75
2022/10/24 08:11:33;;;;;;;3.05;1.17;;;15.40;99.90;;;;;;5033793;28;20078;-76
2022/10/24 08:13:58;;;;;;;5.15;1.25;;;15.40;99.90;;;;;;5033934;28;20090;-75
2022/10/24 08:16:25;;;;;;;6.10;1.25;;;15.50;99.90;;;;;;5033759;28;20098;-76
2022/10/24 08:18:53;;;;;;;7.47;1.40;;;15.60;99.90;;;;;;5050435;28;20052;-73
2022/10/24 08:21:20;;;;;;;9.65;1.48;;;15.60;99.90;;;;;;5050483;28;20397;-73
2022/10/24 08:23:49;;;;;;;4.85;1.02;;;15.70;99.90;;;;;;5033589;28;20041;-72
2022/10/24 08:26:17;;;;;;;4.75;1.35;;;15.70;99.90;;;;;;5050217;28;20099;-73
2022/10/24 08:28:45;;;;;;;2.28;1.30;;;15.70;99.90;;;;;;5050490;28;20043;-69
2022/10/24 08:31:17;;;;;;;4.70;1.00;;;15.80;99.90;;;;;;5051534;28;20044;-68
2022/10/24 08:33:42;;;;;;;7.10;1.27;;;15.80;99.90;;;;;;5050456;28;20049;-69
2022/10/24 08:36:17;;;;;;;8.10;1.38;;;15.80;99.90;;;;;;5051415;28;20033;-69
2022/10/24 08:38:43;;;;;;;4.82;1.25;;;15.90;99.90;;;;;;5051885;28;20037;-69
2022/10/24 08:41:28;;;;;;;8.50;1.38;;;16.00;99.90;;;;;;5051508;28;20124;-68
2022/10/24 08:43:55;;;;;;;7.55;1.35;;;16.00;99.90;;;;;;5051113;28;20045;-68
2022/10/24 08:46:47;;;;;;;3.92;1.20;;;16.00;99.90;;;;;;5054285;28;20059;-68
2022/10/24 08:49:24;;;;;;;10.40;1.63;;;16.10;99.90;;;;;;5053075;28;20043;-67
2022/10/24 08:51:59;;;;;;;8.65;1.20;;;16.30;99.90;;;;;;5052649;28;20040;-68
2022/10/24 08:54:32;;;;;;;2.67;1.02;;;16.20;99.90;;;;;;5054311;28;20041;-67
2022/10/24 08:57:00;;;;;;;15.77;1.23;;;16.30;99.90;;;;;;5054984;28;20052;-68
2022/10/24 08:59:28;;;;;;;5.55;1.48;;;16.30;99.90;;;;;;5052504;28;20120;-67
2022/10/24 09:02:18;;;;;;;3.35;1.27;;;16.30;99.90;;;;;;5052608;28;20041;-67
2022/10/24 09:04:51;;;;;;;7.75;1.30;;;16.30;99.90;;;;;;5053121;28;20489;-67
2022/10/24 09:07:20;;;;;;;6.18;1.20;;;16.40;99.90;;;;;;5055420;28;20051;-67
2022/10/24 09:09:49;;;;;;;6.30;2.28;;;16.40;99.90;;;;;;5054375;28;20033;-71
2022/10/24 09:12:18;;;;;;;6.07;1.10;;;16.40;99.90;;;;;;5054478;28;20049;-71
2022/10/24 09:14:46;;;;;;;7.10;1.08;;;16.40;99.90;;;;;;5054472;28;20047;-73
2022/10/24 09:17:19;;;;;;;7.15;2.00;;;16.40;99.90;;;;;;5037149;28;20064;-72
2022/10/24 09:19:50;;;;;;;6.82;1.42;;;16.50;99.90;;;;;;5053724;28;20047;-73
2022/10/24 09:22:16;;;;;;;5.75;1.50;;;16.40;99.90;;;;;;5053703;28;20124;-73
2022/10/24 09:24:56;;;;;;;15.48;2.60;;;16.40;99.90;;;;;;5053349;28;20037;-73
2022/10/24 09:27:29;;;;;;;10.13;1.42;;;16.40;99.90;;;;;;5053555;28;20505;-73
2022/10/24 09:29:56;;;;;;;9.73;1.45;;;16.50;99.90;;;;;;5053689;28;20053;-73
2022/10/24 09:32:26;;;;;;;5.47;1.20;;;16.50;99.90;;;;;;5053504;28;20036;-73
2022/10/24 09:34:53;;;;;;;6.47;1.30;;;16.50;99.90;;;;;;5054703;28;20051;-73
2022/10/24 09:37:39;;;;;;;7.50;1.55;;;16.50;99.90;;;;;;5053153;28;20067;-73
2022/10/24 09:40:22;;;;;;;4.63;0.85;;;16.50;99.90;;;;;;5053414;28;20400;-73
2022/10/24 09:42:53;;;;;;;3.55;0.93;;;16.50;99.90;;;;;;5053191;28;20120;-73
2022/10/24 09:45:42;;;;;;;7.50;1.17;;;16.50;99.90;;;;;;5053003;28;20037;-72
2022/10/24 09:48:16;;;;;;;3.25;1.05;;;16.40;99.90;;;;;;5054473;28;20037;-73
2022/10/24 09:50:44;;;;;;;6.55;1.10;;;16.40;99.90;;;;;;5053117;28;20048;-72
2022/10/24 09:53:22;;;;;;;2.63;0.80;;;16.50;99.90;;;;;;5052982;28;20095;-73
2022/10/24 09:55:51;;;;;;;2.63;1.05;;;16.50;99.90;;;;;;5052719;28;20056;-73
2022/10/24 09:58:20;;;;;;;7.15;1.35;;;16.50;99.90;;;;;;5051795;28;20047;-73
2022/10/24 10:00:57;;;;;;;3.42;1.00;;;16.50;99.90;;;;;;5053179;28;20047;-73
2022/10/24 10:03:22;;;;;;;7.78;1.17;;;16.50;99.90;;;;;;5052866;28;20040;-73
2022/10/24 10:05:54;;;;;;;4.95;1.00;;;16.50;99.90;;;;;;5053960;28;20041;-73
2022/10/24 10:08:32;;;;;;;5.40;1.17;;;16.40;99.90;;;;;;5053020;28;20055;-72
2022/10/24 10:11:12;;;;;;;4.95;1.13;;;16.40;99.90;;;;;;5054069;28;20072;-73
2022/10/24 10:13:52;;;;;;;5.18;1.13;;;16.40;99.90;;;;;;5052697;28;20067;-73
2022/10/24 10:16:25;;;;;;;2.65;0.80;;;16.40;99.90;;;;;;5052414;28;20037;-72
2022/10/24 10:19:00;;;;;;;2.97;1.00;;;16.50;99.90;;;;;;5049730;28;20466;-73
2022/10/24 10:21:26;;;;;;;5.32;0.88;;;16.40;99.90;;;;;;5050638;28;20468;-72
2022/10/24 10:23:54;;;;;;;5.53;0.80;;;16.30;99.90;;;;;;5052957;28;20071;-72
2022/10/24 10:26:19;;;;;;;6.30;1.00;;;16.10;99.90;;;;;;5052318;28;20107;-72
2022/10/24 10:28:49;;;;;;;4.47;0.93;;;16.00;99.90;;;;;;5053470;28;20029;-72
2022/10/24 10:31:17;;;;;;;5.97;1.23;;;15.80;99.90;;;;;;5049894;28;20048;-73
2022/10/24 10:34:10;;;;;;;1.83;0.85;;;15.70;99.90;;;;;;5051800;28;20043;-72
2022/10/24 10:37:02;;;;;;;6.60;2.08;;;15.60;99.90;;;;;;5033543;28;20087;-72
2022/10/24 10:39:53;;;;;;;7.95;1.00;;;15.70;99.90;;;;;;5032599;28;20050;-72
2022/10/24 10:42:35;;;;;;;4.43;1.10;;;15.60;99.90;;;;;;5033244;28;20049;-72
2022/10/24 10:45:12;;;;;;;4.32;1.17;;;15.70;99.90;;;;;;5032163;28;20068;-72
2022/10/24 10:48:16;;;;;;;5.03;1.02;;;15.70;99.90;;;;;;5033348;28;20116;-72
2022/10/24 10:50:57;;;;;;;6.97;1.15;;;15.80;99.90;;;;;;5031942;28;20116;-72
2022/10/24 10:53:37;;;;;;;4.82;1.05;;;15.90;99.90;;;;;;5033273;28;20072;-72
2022/10/24 10:56:23;;;;;;;2.33;1.23;;;15.90;99.90;;;;;;5031304;28;20034;-72
2022/10/24 10:59:18;;;;;;;1.85;0.90;;;16.00;99.90;;;;;;5015686;28;20041;-72
2022/10/24 11:01:59;;;;;;;7.85;1.17;;;16.10;99.90;;;;;;5032947;28;20041;-72
2022/10/24 11:04:30;;;;;;;5.15;0.95;;;16.10;99.90;;;;;;5031603;28;20042;-72
2022/10/24 11:07:34;;;;;;;5.83;1.30;;;16.20;99.90;;;;;;5031578;28;20045;-72
2022/10/24 11:10:05;;;;;;;3.63;0.80;;;16.20;99.90;;;;;;5048395;28;20077;-72
2022/10/24 11:12:40;;;;;;;6.80;1.00;;;16.30;99.90;;;;;;5015346;28;20421;-72
2022/10/24 11:15:15;;;;;;;3.55;1.02;;;16.30;99.90;;;;;;5047965;28;20049;-72
2022/10/24 11:17:49;;;;;;;6.25;1.25;;;16.40;99.90;;;;;;5031483;28;20096;-72
2022/10/24 11:20:17;;;;;;;4.40;0.90;;;16.40;99.90;;;;;;5031802;28;20045;-72
2022/10/24 11:22:49;;;;;;;7.10;1.00;;;16.40;99.90;;;;;;5031257;28;20079;-72
2022/10/24 11:25:44;;;;;;;5.18;0.82;;;16.40;99.90;;;;;;5046164;28;20497;-73
2022/10/24 11:28:23;;;;;;;5.13;1.20;;;16.50;99.90;;;;;;5048770;28;20045;-74
2022/10/24 11:31:00;;;;;;;5.13;1.15;;;16.50;99.90;;;;;;5050699;28;20041;-73
2022/10/24 11:33:34;;;;;;;4.70;1.13;;;16.50;99.90;;;;;;5050626;28;20083;-73
2022/10/24 11:36:08;;;;;;;2.83;0.77;;;16.50;99.90;;;;;;5049708;28;20040;-73
2022/10/24 11:38:49;;;;;;;5.93;0.90;;;16.50;99.90;;;;;;5034232;28;20561;-74
2022/10/24 11:41:42;;;;;;;4.97;1.02;;;16.50;99.90;;;;;;5033852;28;20095;-73
2022/10/24 11:44:23;;;;;;;3.40;0.98;;;16.50;99.90;;;;;;5032736;28;20145;-73
2022/10/24 11:46:59;;;;;;;5.82;0.90;;;16.50;99.90;;;;;;5051674;28;20516;-73
2022/10/24 11:49:31;;;;;;;6.53;0.88;;;16.50;99.90;;;;;;5050843;28;20469;-73
2022/10/24 11:52:20;;;;;;;3.35;1.00;;;16.50;99.90;;;;;;5050160;28;20132;-73
2022/10/24 11:54:55;;;;;;;5.53;1.08;;;16.50;99.90;;;;;;5043488;28;20080;-73
2022/10/24 11:57:25;;;;;;;5.38;0.80;;;16.50;99.90;;;;;;5051439;28;20484;-72
2022/10/24 11:59:52;;;;;;;2.97;0.93;;;16.50;99.90;;;;;;5050109;28;20071;-74
2022/10/24 12:02:35;;;;;;;5.20;1.05;;;16.50;99.90;;;;;;5049970;28;20033;-74
2022/10/24 12:05:40;;;;;;;1.30;0.70;;;16.50;99.90;;;;;;5049789;28;20378;-73
2022/10/24 12:08:27;;;;;;;4.25;0.80;;;16.50;99.90;;;;;;5050331;28;20388;-73
2022/10/24 12:11:18;;;;;;;2.95;0.93;;;16.50;99.90;;;;;;5050261;28;20467;-73
2022/10/24 12:14:02;;;;;;;3.92;1.00;;;16.50;99.90;;;;;;5033247;28;20048;-73
2022/10/24 12:16:56;;;;;;;2.55;0.80;;;16.50;99.90;;;;;;5049668;28;20186;-73
2022/10/24 12:19:23;;;;;;;5.03;1.05;;;16.50;99.90;;;;;;5031468;28;20041;-73
2022/10/24 12:21:53;;;;;;;7.88;1.33;;;16.50;99.90;;;;;;5051027;28;20444;-73
2022/10/24 12:24:39;;;;;;;3.35;1.00;;;16.50;99.90;;;;;;5050114;28;20389;-73
2022/10/24 12:27:18;;;;;;;2.95;1.13;;;16.50;99.90;;;;;;5050088;28;20052;-73
2022/10/24 12:29:43;;;;;;;5.13;0.90;;;16.50;99.90;;;;;;5032339;28;20071;-73
2022/10/24 12:32:37;;;;;;;3.63;0.80;;;16.50;99.90;;;;;;5049139;28;20452;-73
2022/10/24 12:35:23;;;;;;;4.70;0.98;;;16.50;99.90;;;;;;5049578;28;20499;-73
2022/10/24 12:37:48;;;;;;;1.90;0.98;;;16.50;99.90;;;;;;5048341;28;20040;-73
2022/10/24 12:40:51;;;;;;;4.13;0.90;;;16.50;99.90;;;;;;5050021;28;20079;-73
2022/10/24 12:43:27;;;;;;;;;;;16.50;99.90;;;;;;5049924;28;20073;-74
2022/10/24 12:45:53;;;;;;;2.60;0.88;;;16.50;99.90;;;;;;5029491;28;19927;-73
2022/10/24 12:48:28;;;;;;;2.03;0.90;;;16.50;99.90;;;;;;5030084;28;20124;-74
2022/10/24 12:50:58;;;;;;;4.85;1.90;;;16.50;99.90;;;;;;5030102;28;20038;-73
2022/10/24 12:53:58;;;;;;;3.97;1.13;;;16.50;99.90;;;;;;5037919;28;20120;-73
2022/10/24 12:56:24;;;;;;;3.85;0.90;;;16.50;99.90;;;;;;5048874;28;20432;-74
2022/10/24 12:59:20;;;;;;;5.80;1.13;;;16.50;99.90;;;;;;5033178;28;20041;-73
2022/10/24 13:01:48;;;;;;;3.60;0.70;;;16.60;99.90;;;;;;5032575;28;20110;-73
2022/10/24 13:04:37;;;;;;;4.30;0.77;;;16.60;99.90;;;;;;5049349;28;20033;-73
2022/10/24 13:07:24;;;;;;;2.35;0.70;;;16.60;99.90;;;;;;5050958;28;20052;-72